Time;durP1;ratioP1;P1;durP2;ratioP2;P2;SDS_P1;SDS_P2;PMS_P1;PMS_P2;Temp;Humidity;BMP_temperature;BMP_pressure;BME280_temperature;BME280_humidity;BME280_pressure;Samples;Min_cycle;Max_cycle;Signal;HPM_P1;HPM_P2
2021/06/16 00:01:30;;;;;;;;;;;;;;;20.63;58.26;99857.78;5119318;27;1003;-65
2021/06/16 00:03:55;;;;;;;;;;;;;;;20.42;59.78;99854.84;5118576;28;1976;-49
2021/06/16 00:06:21;;;;;;;;;;;;;;;20.76;57.97;99856.88;5119648;28;798;-40
2021/06/16 00:08:46;;;;;;;;;;;;;;;20.74;58.68;99863.84;5119086;28;862;-63
2021/06/16 00:11:12;;;;;;;;;;;;;;;20.62;60.39;99870.78;5139256;27;1130;-40
2021/06/16 00:13:37;;;;;;;;;;;;;;;20.61;60.52;99865.59;5140020;27;750;-64
2021/06/16 00:16:03;;;;;;;;;;;;;;;20.51;60.08;99878.56;5138358;27;961;-40
2021/06/16 00:18:28;;;;;;;;;;;;;;;20.72;57.83;99875.22;5139485;27;806;-64
2021/06/16 00:20:54;;;;;;;;;;;;;;;20.66;57.04;99885.59;5139757;27;759;-40
2021/06/16 00:23:19;;;;;;;;;;;;;;;20.69;57.98;99873.09;5139815;27;770;-64
2021/06/16 00:25:44;;;;;;;;;;;;;;;20.58;59.69;99883.63;5139720;27;1979;-49
2021/06/16 00:28:10;;;;;;;;;;;;;;;20.47;60.32;99874.81;5139618;27;826;-65
2021/06/16 00:30:36;;;;;;;;;;;;;;;20.16;61.87;99878.47;5127019;27;968;-48
2021/06/16 00:33:01;;;;;;;;;;;;;;;20.34;60.62;99876.59;5118650;28;823;-46
2021/06/16 00:35:26;;;;;;;;;;;;;;;20.49;59.34;99877.25;5118943;28;755;-64
2021/06/16 00:37:52;;;;;;;;;;;;;;;20.50;59.49;99881.66;5118979;28;815;-40
2021/06/16 00:40:19;;;;;;;;;;;;;;;20.30;61.04;99881.13;5117703;28;1393;-65
2021/06/16 00:42:45;;;;;;;;;;;;;;;20.46;60.06;99875.94;5118611;28;764;-40
2021/06/16 00:45:11;;;;;;;;;;;;;;;19.74;61.73;99877.94;5126042;27;1980;-40
2021/06/16 00:47:36;;;;;;;;;;;;;;;20.05;62.26;99882.66;5139077;27;763;-62
2021/06/16 00:50:02;;;;;;;;;;;;;;;20.22;61.58;99870.84;5138553;27;782;-52
2021/06/16 00:52:27;;;;;;;;;;;;;;;20.57;60.02;99872.91;5137554;27;843;-66
2021/06/16 00:54:53;;;;;;;;;;;;;;;20.51;59.93;99880.53;5138943;27;795;-40
2021/06/16 00:57:19;;;;;;;;;;;;;;;20.21;61.17;99879.47;5139220;27;796;-40
2021/06/16 00:59:56;;;;;;;;;;;;;;;20.39;61.01;99878.38;5133626;27;957;-40
2021/06/16 01:02:22;;;;;;;;;;;;;;;20.44;60.39;99883.75;5117917;28;1370;-57
2021/06/16 01:04:48;;;;;;;;;;;;;;;20.18;60.05;99881.72;5116931;28;1913;-40
2021/06/16 01:07:13;;;;;;;;;;;;;;;20.72;57.24;99888.19;5118747;28;787;-40
2021/06/16 01:09:58;;;;;;;;;;;;;;;20.35;59.39;99885.66;5124619;27;1079;-65
2021/06/16 01:12:40;;;;;;;;;;;;;;;20.63;59.62;99891.72;5137152;27;888;-40
2021/06/16 01:15:12;;;;;;;;;;;;;;;20.54;59.10;99884.56;5129414;27;958;-39
2021/06/16 01:17:42;;;;;;;;;;;;;;;20.48;59.36;99886.66;5117772;28;846;-40
2021/06/16 01:20:08;;;;;;;;;;;;;;;20.37;60.63;99888.94;5116917;28;783;-40
2021/06/16 01:22:52;;;;;;;;;;;;;;;20.35;61.13;99882.91;5118034;28;906;-40
2021/06/16 01:25:21;;;;;;;;;;;;;;;20.28;60.35;99874.28;5117746;28;1909;-40
2021/06/16 01:27:46;;;;;;;;;;;;;;;20.85;58.44;99876.19;5116878;28;804;-45
2021/06/16 01:30:12;;;;;;;;;;;;;;;20.46;60.45;99880.66;5115685;28;1006;-64
2021/06/16 01:32:37;;;;;;;;;;;;;;;20.62;60.04;99884.59;5116557;28;787;-40
2021/06/16 01:35:03;;;;;;;;;;;;;;;20.17;61.29;99891.16;5116700;28;811;-40
2021/06/16 01:37:28;;;;;;;;;;;;;;;20.30;59.63;99888.56;5117846;28;826;-40
2021/06/16 01:39:55;;;;;;;;;;;;;;;20.69;56.75;99897.94;5117140;28;767;-40
2021/06/16 01:42:20;;;;;;;;;;;;;;;20.22;58.65;99892.16;5116747;28;799;-41
2021/06/16 01:44:46;;;;;;;;;;;;;;;20.42;59.43;99891.53;5116000;28;1972;-54
2021/06/16 01:47:12;;;;;;;;;;;;;;;19.75;62.87;99896.09;5117254;28;747;-40
2021/06/16 01:49:38;;;;;;;;;;;;;;;20.28;61.14;99894.41;5117642;28;779;-40
2021/06/16 01:52:03;;;;;;;;;;;;;;;20.41;60.20;99889.94;5117590;28;783;-41
2021/06/16 01:54:29;;;;;;;;;;;;;;;20.60;60.04;99897.91;5115825;28;854;-40
2021/06/16 01:56:54;;;;;;;;;;;;;;;20.23;61.63;99894.56;5115925;28;836;-40
2021/06/16 01:59:20;;;;;;;;;;;;;;;20.53;60.13;99900.34;5117028;28;958;-45
2021/06/16 02:01:49;;;;;;;;;;;;;;;20.83;57.67;99906.09;5114938;28;1407;-40
2021/06/16 02:04:14;;;;;;;;;;;;;;;20.66;58.55;99902.16;5115876;28;1969;-61
2021/06/16 02:06:40;;;;;;;;;;;;;;;20.52;60.56;99895.94;5117250;28;831;-40
2021/06/16 02:09:06;;;;;;;;;;;;;;;20.44;60.29;99905.84;5118750;27;1153;-58
2021/06/16 02:11:32;;;;;;;;;;;;;;;20.45;58.60;99912.97;5136734;27;802;-40
2021/06/16 02:13:57;;;;;;;;;;;;;;;20.48;56.85;99915.13;5136017;27;867;-45
2021/06/16 02:16:43;;;;;;;;;;;;;;;20.44;59.79;99914.13;5118431;27;941;-40
2021/06/16 02:19:10;;;;;;;;;;;;;;;20.31;61.01;99915.06;5116186;28;779;-40
2021/06/16 02:21:35;;;;;;;;;;;;;;;20.20;59.91;99919.22;5117244;28;756;-43
2021/06/16 02:24:01;;;;;;;;;;;;;;;20.52;56.33;99913.34;5116745;28;1977;-65
2021/06/16 02:26:26;;;;;;;;;;;;;;;20.53;58.38;99914.16;5117166;28;747;-62
2021/06/16 02:28:52;;;;;;;;;;;;;;;20.43;60.28;99915.25;5116163;28;821;-48
2021/06/16 02:31:17;;;;;;;;;;;;;;;20.44;60.61;99919.66;5116316;28;1000;-43
2021/06/16 02:33:43;;;;;;;;;;;;;;;20.91;59.20;99910.00;5117289;28;899;-41
2021/06/16 02:36:09;;;;;;;;;;;;;;;20.76;59.63;99917.66;5115197;28;823;-41
2021/06/16 02:38:34;;;;;;;;;;;;;;;20.74;58.71;99919.91;5116651;28;744;-40
2021/06/16 02:41:00;;;;;;;;;;;;;;;20.64;58.77;99923.75;5115755;28;827;-48
2021/06/16 02:43:25;;;;;;;;;;;;;;;20.54;60.13;99926.00;5115258;28;943;-63
2021/06/16 02:45:51;;;;;;;;;;;;;;;20.31;61.11;99923.34;5114970;28;1917;-40
2021/06/16 02:48:17;;;;;;;;;;;;;;;19.65;62.66;99929.47;5115659;28;783;-60
2021/06/16 02:50:44;;;;;;;;;;;;;;;20.46;60.06;99928.41;5116729;28;815;-40
2021/06/16 02:53:12;;;;;;;;;;;;;;;20.35;61.07;99935.38;5116311;28;743;-40
2021/06/16 02:55:38;;;;;;;;;;;;;;;20.12;61.49;99931.88;5116890;28;798;-43
2021/06/16 02:58:03;;;;;;;;;;;;;;;20.18;60.14;99922.31;5115251;28;936;-40
2021/06/16 03:00:29;;;;;;;;;;;;;;;20.48;56.13;99917.03;5115034;28;934;-39
2021/06/16 03:02:54;;;;;;;;;;;;;;;20.59;56.81;99923.88;5114866;28;1030;-39
2021/06/16 03:05:24;;;;;;;;;;;;;;;20.30;60.09;99929.97;5115534;28;1906;-45
2021/06/16 03:07:50;;;;;;;;;;;;;;;20.25;60.90;99932.91;5115245;28;751;-40
2021/06/16 03:10:19;;;;;;;;;;;;;;;20.60;60.46;99930.25;5128202;28;1106;-40
2021/06/16 03:12:48;;;;;;;;;;;;;;;20.55;60.78;99938.69;5136986;28;827;-41
2021/06/16 03:15:14;;;;;;;;;;;;;;;20.74;59.88;99936.47;5129381;27;962;-38
2021/06/16 03:17:40;;;;;;;;;;;;;;;20.52;60.75;99932.66;5120334;28;901;-40
2021/06/16 03:20:06;;;;;;;;;;;;;;;20.54;60.93;99939.81;5128403;27;1146;-60
2021/06/16 03:22:31;;;;;;;;;;;;;;;20.50;60.89;99937.69;5139497;27;886;-56
2021/06/16 03:24:57;;;;;;;;;;;;;;;20.43;61.09;99936.53;5139318;27;1976;-49
2021/06/16 03:27:22;;;;;;;;;;;;;;;20.47;61.07;99943.84;5141194;27;767;-42
2021/06/16 03:29:49;;;;;;;;;;;;;;;20.32;61.44;99941.53;5133243;27;1013;-40
2021/06/16 03:32:14;;;;;;;;;;;;;;;20.43;61.20;99942.88;5118731;28;842;-39
2021/06/16 03:34:40;;;;;;;;;;;;;;;20.36;61.44;99942.53;5120279;28;810;-39
2021/06/16 03:37:07;;;;;;;;;;;;;;;20.73;60.29;99940.38;5119167;27;837;-44
2021/06/16 03:39:33;;;;;;;;;;;;;;;20.60;60.42;99935.78;5118984;28;806;-39
2021/06/16 03:41:58;;;;;;;;;;;;;;;20.78;58.08;99936.66;5118635;28;787;-51
2021/06/16 03:44:24;;;;;;;;;;;;;;;20.61;57.46;99937.41;5117799;28;1972;-39
2021/06/16 03:46:50;;;;;;;;;;;;;;;20.93;56.53;99938.94;5118945;28;771;-39
2021/06/16 03:49:15;;;;;;;;;;;;;;;20.04;60.00;99947.25;5133873;27;951;-57
2021/06/16 03:51:43;;;;;;;;;;;;;;;20.05;61.82;99937.84;5138514;27;838;-39
2021/06/16 03:54:12;;;;;;;;;;;;;;;20.61;60.54;99953.97;5140317;27;790;-40
2021/06/16 03:56:38;;;;;;;;;;;;;;;20.70;60.51;99941.00;5138785;27;1496;-47
2021/06/16 03:59:03;;;;;;;;;;;;;;;20.41;61.33;99947.91;5124747;27;1117;-38
2021/06/16 04:01:29;;;;;;;;;;;;;;;20.81;59.98;99945.09;5117999;28;1115;-38
2021/06/16 04:03:54;;;;;;;;;;;;;;;20.29;61.81;99953.22;5118107;28;1905;-65
2021/06/16 04:06:20;;;;;;;;;;;;;;;20.39;61.44;99952.91;5118048;28;795;-39
2021/06/16 04:08:45;;;;;;;;;;;;;;;20.48;61.10;99962.06;5118048;28;878;-39
2021/06/16 04:11:12;;;;;;;;;;;;;;;20.48;61.27;99964.81;5138935;27;1193;-67
2021/06/16 04:13:37;;;;;;;;;;;;;;;20.55;60.95;99977.34;5138279;27;842;-40
2021/06/16 04:16:03;;;;;;;;;;;;;;;20.17;61.92;99979.47;5120690;27;878;-52
2021/06/16 04:18:30;;;;;;;;;;;;;;;20.52;59.20;99981.56;5119837;28;786;-66
2021/06/16 04:20:55;;;;;;;;;;;;;;;20.81;57.44;99980.22;5118814;28;751;-37
2021/06/16 04:23:21;;;;;;;;;;;;;;;20.53;58.03;99991.47;5118176;28;1145;-40
2021/06/16 04:25:46;;;;;;;;;;;;;;;20.97;57.46;99977.78;5118315;28;1909;-59
2021/06/16 04:28:12;;;;;;;;;;;;;;;20.92;58.80;99976.00;5118767;28;748;-38
2021/06/16 04:30:37;;;;;;;;;;;;;;;20.87;59.81;99983.63;5130142;27;961;-61
2021/06/16 04:33:03;;;;;;;;;;;;;;;20.96;59.38;99976.19;5139428;27;795;-43
2021/06/16 04:35:28;;;;;;;;;;;;;;;20.78;59.29;99981.66;5137650;27;879;-39
2021/06/16 04:37:54;;;;;;;;;;;;;;;20.72;59.05;99971.91;5138646;27;1255;-39
2021/06/16 04:40:20;;;;;;;;;;;;;;;20.85;58.49;99965.41;5139262;27;861;-59
2021/06/16 04:42:45;;;;;;;;;;;;;;;20.85;58.38;99964.63;5139349;27;830;-61
2021/06/16 04:45:11;;;;;;;;;;;;;;;20.90;57.89;99963.66;5130279;27;1917;-40
2021/06/16 04:47:36;;;;;;;;;;;;;;;20.64;58.35;99961.63;5118867;28;791;-61
2021/06/16 04:50:03;;;;;;;;;;;;;;;20.46;56.94;99953.25;5118627;28;803;-58
2021/06/16 04:52:29;;;;;;;;;;;;;;;20.25;59.20;99957.75;5118547;28;778;-40
2021/06/16 04:54:54;;;;;;;;;;;;;;;20.63;59.92;99957.22;5118271;28;779;-40
2021/06/16 04:57:20;;;;;;;;;;;;;;;20.41;60.96;99960.88;5117116;28;899;-39
2021/06/16 04:59:45;;;;;;;;;;;;;;;20.65;60.25;99954.94;5118058;28;929;-61
2021/06/16 05:02:11;;;;;;;;;;;;;;;20.93;58.61;99965.75;5118215;28;1034;-40
2021/06/16 05:04:36;;;;;;;;;;;;;;;21.08;57.00;99958.94;5118434;28;1976;-59
2021/06/16 05:07:02;;;;;;;;;;;;;;;21.05;55.88;99971.47;5117759;28;842;-41
2021/06/16 05:09:27;;;;;;;;;;;;;;;20.97;55.42;99967.56;5123166;27;999;-40
2021/06/16 05:11:53;;;;;;;;;;;;;;;20.96;55.50;99970.66;5138861;27;803;-53
2021/06/16 05:14:18;;;;;;;;;;;;;;;20.97;57.47;99978.63;5136512;27;1494;-56
2021/06/16 05:16:44;;;;;;;;;;;;;;;20.60;60.26;99985.50;5118762;28;838;-39
2021/06/16 05:19:16;;;;;;;;;;;;;;;20.64;60.06;99986.47;5118196;28;833;-60
2021/06/16 05:21:42;;;;;;;;;;;;;;;20.57;59.16;99975.09;5116192;28;1105;-38
2021/06/16 05:24:08;;;;;;;;;;;;;;;20.77;56.01;99980.03;5117898;28;1980;-43
2021/06/16 05:26:34;;;;;;;;;;;;;;;21.01;54.62;99974.09;5118146;28;739;-39
2021/06/16 05:28:59;;;;;;;;;;;;;;;20.70;57.97;99978.88;5122562;27;1433;-40
2021/06/16 05:31:25;;;;;;;;;;;;;;;20.73;59.51;99969.94;5119090;27;1000;-39
2021/06/16 05:33:50;;;;;;;;;;;;;;;20.70;59.57;99982.44;5117727;28;779;-38
2021/06/16 05:36:15;;;;;;;;;;;;;;;20.56;59.46;99988.06;5117452;28;822;-38
2021/06/16 05:38:41;;;;;;;;;;;;;;;20.39;59.38;99996.28;5118168;28;739;-39
2021/06/16 05:41:06;;;;;;;;;;;;;;;20.61;58.29;99987.94;5120591;27;883;-62
2021/06/16 05:43:32;;;;;;;;;;;;;;;21.00;58.86;99988.22;5138176;27;819;-38
2021/06/16 05:45:57;;;;;;;;;;;;;;;20.71;60.05;99995.13;5122335;27;1905;-64
2021/06/16 05:48:23;;;;;;;;;;;;;;;20.68;59.73;100001.31;5117541;28;831;-55
2021/06/16 05:50:48;;;;;;;;;;;;;;;20.28;59.05;99996.56;5117135;28;743;-42
2021/06/16 05:53:14;;;;;;;;;;;;;;;19.76;59.95;100010.03;5117638;28;799;-38
2021/06/16 05:55:39;;;;;;;;;;;;;;;20.16;59.60;100005.44;5117286;28;886;-63
2021/06/16 05:58:05;;;;;;;;;;;;;;;20.45;60.59;100012.38;5117371;28;787;-38
2021/06/16 06:00:30;;;;;;;;;;;;;;;19.96;63.12;100000.44;5117399;28;965;-38
2021/06/16 06:02:56;;;;;;;;;;;;;;;19.92;62.75;99996.69;5117267;28;1022;-58
2021/06/16 06:05:21;;;;;;;;;;;;;;;20.18;60.40;99996.84;5117056;28;1906;-38
2021/06/16 06:07:47;;;;;;;;;;;;;;;20.01;58.60;100000.31;5117368;28;1009;-39
2021/06/16 06:10:12;;;;;;;;;;;;;;;20.30;57.29;99997.06;5128278;27;1216;-41
2021/06/16 06:12:38;;;;;;;;;;;;;;;20.63;59.31;99993.94;5137415;27;790;-64
2021/06/16 06:15:04;;;;;;;;;;;;;;;20.25;62.49;99982.59;5129267;27;960;-39
2021/06/16 06:17:29;;;;;;;;;;;;;;;20.32;62.58;99996.75;5117147;28;799;-40
2021/06/16 06:19:55;;;;;;;;;;;;;;;20.42;61.53;99999.22;5116770;28;763;-39
2021/06/16 06:22:20;;;;;;;;;;;;;;;20.80;59.98;100003.44;5116774;28;811;-39
2021/06/16 06:24:46;;;;;;;;;;;;;;;20.35;61.01;100007.94;5116478;28;1909;-45
2021/06/16 06:27:11;;;;;;;;;;;;;;;20.35;61.27;100016.25;5116584;28;780;-39
2021/06/16 06:29:37;;;;;;;;;;;;;;;20.67;59.97;100018.97;5116422;28;957;-39
2021/06/16 06:32:02;;;;;;;;;;;;;;;20.73;60.15;100016.91;5116754;28;786;-43
2021/06/16 06:34:28;;;;;;;;;;;;;;;20.81;60.63;100024.41;5116371;28;870;-55
2021/06/16 06:36:53;;;;;;;;;;;;;;;21.04;60.21;100019.59;5116599;28;850;-38
2021/06/16 06:39:19;;;;;;;;;;;;;;;20.76;60.89;100021.78;5116590;28;823;-61
2021/06/16 06:41:44;;;;;;;;;;;;;;;21.02;59.38;100019.09;5116574;28;744;-38
2021/06/16 06:44:10;;;;;;;;;;;;;;;20.69;59.86;100011.19;5116656;28;1980;-61
2021/06/16 06:46:35;;;;;;;;;;;;;;;20.76;60.56;100021.78;5116335;28;941;-37
2021/06/16 06:49:00;;;;;;;;;;;;;;;20.72;61.19;100029.09;5117994;28;807;-38
2021/06/16 06:51:26;;;;;;;;;;;;;;;20.94;59.58;100017.94;5120686;28;854;-58
2021/06/16 06:53:51;;;;;;;;;;;;;;;20.01;61.20;100025.16;5120729;28;835;-38
2021/06/16 06:56:17;;;;;;;;;;;;;;;20.43;60.58;100033.19;5120357;28;862;-60
2021/06/16 06:58:42;;;;;;;;;;;;;;;20.66;61.12;100037.50;5120582;28;840;-38
2021/06/16 07:01:08;;;;;;;;;;;;;;;20.74;60.70;100035.94;5120110;28;981;-61
2021/06/16 07:03:33;;;;;;;;;;;;;;;21.15;58.90;100034.75;5120139;28;1023;-37
2021/06/16 07:05:58;;;;;;;;;;;;;;;21.10;58.52;100037.66;5120434;28;1964;-51
2021/06/16 07:08:24;;;;;;;;;;;;;;;20.80;58.88;100045.72;5120669;28;803;-37
2021/06/16 07:10:49;;;;;;;;;;;;;;;21.32;58.06;100044.19;5136837;27;1134;-38
2021/06/16 07:13:15;;;;;;;;;;;;;;;21.06;59.44;100052.47;5140823;27;839;-60
2021/06/16 07:15:40;;;;;;;;;;;;;;;21.01;60.03;100057.00;5127551;27;1016;-38
2021/06/16 07:18:06;;;;;;;;;;;;;;;20.84;59.77;100054.16;5120308;28;808;-59
2021/06/16 07:20:31;;;;;;;;;;;;;;;20.78;58.79;100039.69;5120120;28;803;-38
2021/06/16 07:22:57;;;;;;;;;;;;;;;20.92;57.00;100066.41;5120186;28;854;-57
2021/06/16 07:25:22;;;;;;;;;;;;;;;21.08;55.96;100056.50;5120232;28;1905;-57
2021/06/16 07:27:48;;;;;;;;;;;;;;;20.91;56.20;100056.47;5119790;28;838;-58
2021/06/16 07:30:13;;;;;;;;;;;;;;;20.92;56.00;100063.63;5119498;28;965;-56
2021/06/16 07:32:39;;;;;;;;;;;;;;;20.84;57.20;100052.22;5119967;28;750;-51
2021/06/16 07:35:05;;;;;;;;;;;;;;;21.06;58.71;100053.25;5119500;28;818;-61
2021/06/16 07:37:30;;;;;;;;;;;;;;;20.95;59.74;100069.31;5119782;28;735;-61
2021/06/16 07:39:55;;;;;;;;;;;;;;;21.04;59.05;100063.81;5119922;28;806;-59
2021/06/16 07:42:21;;;;;;;;;;;;;;;20.78;58.32;100077.56;5119352;28;807;-61
2021/06/16 07:44:47;;;;;;;;;;;;;;;20.92;55.29;100066.41;5120134;27;1905;-61
2021/06/16 07:47:12;;;;;;;;;;;;;;;20.74;55.00;100069.09;5119637;28;791;-42
2021/06/16 07:49:38;;;;;;;;;;;;;;;20.77;57.86;100073.16;5119280;28;775;-63
2021/06/16 07:52:03;;;;;;;;;;;;;;;20.89;59.57;100067.00;5119542;28;834;-38
2021/06/16 07:54:29;;;;;;;;;;;;;;;20.45;59.59;100078.66;5119888;27;1549;-50
2021/06/16 07:56:54;;;;;;;;;;;;;;;20.46;60.50;100080.28;5132416;27;723;-62
2021/06/16 07:59:19;;;;;;;;;;;;;;;20.49;59.90;100068.59;5138114;27;973;-40
2021/06/16 08:01:45;;;;;;;;;;;;;;;20.29;61.54;100094.03;5118154;28;1062;-58
2021/06/16 08:04:10;;;;;;;;;;;;;;;20.62;61.10;100099.22;5119361;28;1980;-39
2021/06/16 08:06:36;;;;;;;;;;;;;;;20.46;61.22;100096.88;5119278;28;799;-58
2021/06/16 08:09:01;;;;;;;;;;;;;;;20.77;59.21;100100.78;5120484;27;980;-39
2021/06/16 08:11:27;;;;;;;;;;;;;;;21.08;56.68;100102.69;5139294;27;751;-60
2021/06/16 08:13:52;;;;;;;;;;;;;;;20.97;54.61;100105.75;5139809;27;759;-40
2021/06/16 08:16:18;;;;;;;;;;;;;;;20.81;55.22;100110.06;5121064;27;964;-61
2021/06/16 08:18:44;;;;;;;;;;;;;;;20.02;58.99;100115.13;5118617;28;817;-60
2021/06/16 08:21:10;;;;;;;;;;;;;;;20.14;59.56;100123.63;5119073;28;747;-41
2021/06/16 08:23:35;;;;;;;;;;;;;;;19.73;61.42;100124.56;5119215;28;878;-60
2021/06/16 08:26:02;;;;;;;;;;;;;;;19.83;61.94;100134.59;5118866;28;1913;-58
2021/06/16 08:28:27;;;;;;;;;;;;;;;19.91;61.92;100139.38;5119124;28;810;-39
2021/06/16 08:30:53;;;;;;;;;;;;;;;20.75;59.13;100142.56;5118278;28;946;-39
2021/06/16 08:33:18;;;;;;;;;;;;;;;20.79;59.20;100132.50;5118503;28;819;-45
2021/06/16 08:35:44;;;;;;;;;;;;;;;20.94;58.76;100134.00;5118826;28;791;-38
2021/06/16 08:38:09;;;;;;;;;;;;;;;20.60;59.67;100126.34;5118442;28;854;-58
2021/06/16 08:40:34;;;;;;;;;;;;;;;20.50;60.10;100131.00;5117245;28;1199;-38
2021/06/16 08:43:00;;;;;;;;;;;;;;;20.76;59.38;100130.38;5117568;28;740;-39
2021/06/16 08:45:25;;;;;;;;;;;;;;;20.82;59.09;100136.59;5118144;28;1914;-59
2021/06/16 08:47:51;;;;;;;;;;;;;;;20.96;58.82;100136.47;5116398;28;822;-40
2021/06/16 08:50:17;;;;;;;;;;;;;;;20.62;59.86;100152.53;5118493;28;838;-59
2021/06/16 08:52:43;;;;;;;;;;;;;;;21.05;58.41;100140.06;5118560;28;739;-54
2021/06/16 08:55:12;;;;;;;;;;;;;;;21.16;58.08;100146.94;5118413;28;744;-60
2021/06/16 08:57:39;;;;;;;;;;;;;;;20.00;62.16;100155.97;5118242;28;787;-41
2021/06/16 09:00:05;;;;;;;;;;;;;;;20.71;59.63;100162.84;5117872;28;973;-41
2021/06/16 09:02:30;;;;;;;;;;;;;;;20.75;59.54;100164.66;5117805;28;1035;-56
2021/06/16 09:04:56;;;;;;;;;;;;;;;20.70;59.56;100156.50;5118341;28;1976;-40
2021/06/16 09:07:22;;;;;;;;;;;;;;;20.89;59.14;100161.81;5117818;28;801;-60
2021/06/16 09:09:48;;;;;;;;;;;;;;;20.83;59.35;100163.91;5125494;27;1149;-40
2021/06/16 09:12:19;;;;;;;;;;;;;;;20.77;59.65;100159.63;5137344;27;772;-58
2021/06/16 09:14:52;;;;;;;;;;;;;;;20.64;60.32;100166.03;5133178;27;1004;-39
2021/06/16 09:17:21;;;;;;;;;;;;;;;21.09;57.35;100163.19;5117776;28;858;-60
2021/06/16 09:19:56;;;;;;;;;;;;;;;21.23;57.72;100162.28;5118177;28;783;-59
2021/06/16 09:22:29;;;;;;;;;;;;;;;21.13;58.47;100161.41;5117706;28;754;-41
2021/06/16 09:24:55;;;;;;;;;;;;;;;21.17;58.36;100170.69;5117778;28;1966;-39
2021/06/16 09:27:36;;;;;;;;;;;;;;;21.05;58.66;100173.25;5117662;28;823;-57
2021/06/16 09:30:02;;;;;;;;;;;;;;;21.13;58.79;100174.44;5117625;28;950;-39
2021/06/16 09:32:40;;;;;;;;;;;;;;;21.11;58.72;100177.50;5117288;28;814;-57
2021/06/16 09:35:27;;;;;;;;;;;;;;;21.08;59.24;100163.50;5117376;28;819;-39
2021/06/16 09:37:52;;;;;;;;;;;;;;;21.16;58.91;100176.56;5121527;27;1567;-56
2021/06/16 09:40:27;;;;;;;;;;;;;;;21.18;58.75;100177.03;5137740;27;759;-59
2021/06/16 09:42:56;;;;;;;;;;;;;;;21.18;58.84;100188.09;5137872;27;814;-38
2021/06/16 09:45:21;;;;;;;;;;;;;;;21.39;58.08;100193.06;5127819;27;1905;-38
2021/06/16 09:47:47;;;;;;;;;;;;;;;21.07;59.22;100187.56;5117164;28;833;-63
2021/06/16 09:50:12;;;;;;;;;;;;;;;21.28;58.52;100192.53;5115915;28;791;-40
2021/06/16 09:52:38;;;;;;;;;;;;;;;21.32;58.60;100199.03;5117400;28;814;-40
2021/06/16 09:55:22;;;;;;;;;;;;;;;20.72;60.61;100203.97;5115957;28;1208;-61
2021/06/16 09:58:04;;;;;;;;;;;;;;;20.45;60.45;100210.41;5117199;28;731;-38
2021/06/16 10:00:30;;;;;;;;;;;;;;;20.77;61.02;100211.31;5116748;28;946;-44
2021/06/16 10:03:17;;;;;;;;;;;;;;;21.06;59.80;100213.59;5115285;28;1104;-59
2021/06/16 10:06:02;;;;;;;;;;;;;;;21.25;59.05;100204.22;5117046;28;1905;-38
2021/06/16 10:08:27;;;;;;;;;;;;;;;21.29;58.93;100210.75;5116586;28;786;-60
2021/06/16 10:10:53;;;;;;;;;;;;;;;20.98;60.23;100212.38;5134070;27;1130;-37
2021/06/16 10:13:21;;;;;;;;;;;;;;;21.11;59.55;100210.69;5135986;27;887;-61
2021/06/16 10:15:47;;;;;;;;;;;;;;;21.08;59.58;100216.03;5123126;27;949;-64
2021/06/16 10:18:12;;;;;;;;;;;;;;;21.11;58.28;100216.22;5117111;28;870;-44
2021/06/16 10:20:38;;;;;;;;;;;;;;;20.86;60.28;100220.47;5117408;28;791;-61
2021/06/16 10:23:03;;;;;;;;;;;;;;;21.35;59.02;100210.28;5116314;28;787;-38
2021/06/16 10:25:29;;;;;;;;;;;;;;;21.34;58.91;100224.44;5116530;28;1970;-59
2021/06/16 10:27:55;;;;;;;;;;;;;;;21.46;58.74;100230.19;5117222;28;759;-38
2021/06/16 10:30:22;;;;;;;;;;;;;;;21.43;58.66;100222.50;5115902;28;1009;-38
2021/06/16 10:32:47;;;;;;;;;;;;;;;21.66;58.17;100220.50;5116666;28;727;-60
2021/06/16 10:35:13;;;;;;;;;;;;;;;21.48;58.50;100218.81;5116885;28;791;-37
2021/06/16 10:37:42;;;;;;;;;;;;;;;21.64;58.14;100220.03;5116556;28;759;-38
2021/06/16 10:40:17;;;;;;;;;;;;;;;21.66;57.99;100220.50;5116182;28;834;-57
2021/06/16 10:43:05;;;;;;;;;;;;;;;21.17;59.62;100220.47;5116705;28;802;-38
2021/06/16 10:45:33;;;;;;;;;;;;;;;21.46;58.67;100216.34;5115871;28;1989;-37
2021/06/16 10:47:59;;;;;;;;;;;;;;;21.35;59.00;100203.97;5116671;28;799;-38
2021/06/16 10:50:44;;;;;;;;;;;;;;;21.36;59.13;100206.41;5116263;28;850;-39
2021/06/16 10:53:10;;;;;;;;;;;;;;;21.53;58.47;100205.66;5116272;28;735;-47
2021/06/16 10:55:54;;;;;;;;;;;;;;;21.69;57.92;100202.44;5115472;28;744;-58
2021/06/16 10:58:23;;;;;;;;;;;;;;;21.66;58.00;100214.16;5116721;28;755;-42
2021/06/16 11:01:07;;;;;;;;;;;;;;;20.87;60.89;100204.69;5115496;28;1012;-37
2021/06/16 11:03:51;;;;;;;;;;;;;;;21.36;58.99;100205.56;5116456;28;1042;-37
2021/06/16 11:06:32;;;;;;;;;;;;;;;21.58;58.19;100209.41;5116154;28;1982;-57
2021/06/16 11:09:01;;;;;;;;;;;;;;;21.25;59.50;100205.06;5116758;28;1157;-38
2021/06/16 11:11:49;;;;;;;;;;;;;;;21.85;57.36;100225.75;5137292;28;759;-57
2021/06/16 11:14:32;;;;;;;;;;;;;;;21.64;58.14;100227.50;5126889;28;1484;-41
2021/06/16 11:17:01;;;;;;;;;;;;;;;21.86;57.41;100230.13;5116106;28;886;-58
2021/06/16 11:19:35;;;;;;;;;;;;;;;21.70;56.86;100229.00;5116060;28;775;-59
2021/06/16 11:22:05;;;;;;;;;;;;;;;21.50;58.15;100227.56;5116300;28;751;-38
2021/06/16 11:24:49;;;;;;;;;;;;;;;21.37;58.95;100221.84;5115067;28;1977;-41
2021/06/16 11:27:34;;;;;;;;;;;;;;;21.71;57.97;100233.38;5116109;28;802;-37
2021/06/16 11:30:01;;;;;;;;;;;;;;;21.79;57.68;100226.22;5115225;28;1146;-56
2021/06/16 11:32:26;;;;;;;;;;;;;;;21.46;58.55;100227.41;5116532;28;743;-50
2021/06/16 11:34:52;;;;;;;;;;;;;;;20.73;60.22;100222.16;5117182;28;859;-38
2021/06/16 11:37:36;;;;;;;;;;;;;;;20.11;60.81;100222.81;5120036;28;755;-59
2021/06/16 11:40:05;;;;;;;;;;;;;;;19.68;59.99;100221.22;5119609;28;747;-38
2021/06/16 11:42:30;;;;;;;;;;;;;;;19.56;58.43;100213.47;5119889;28;839;-38
2021/06/16 11:44:56;;;;;;;;;;;;;;;19.14;58.14;100216.22;5117767;28;1913;-59
2021/06/16 11:47:21;;;;;;;;;;;;;;;19.07;58.35;100224.06;5119752;28;814;-38
2021/06/16 11:49:46;;;;;;;;;;;;;;;19.09;59.13;100227.31;5119995;28;760;-58
2021/06/16 11:52:12;;;;;;;;;;;;;;;19.26;60.88;100225.91;5117989;28;930;-37
2021/06/16 11:54:40;;;;;;;;;;;;;;;19.39;62.81;100233.41;5118349;28;1317;-59
2021/06/16 11:57:09;;;;;;;;;;;;;;;19.48;63.99;100231.53;5119403;28;1059;-38
2021/06/16 11:59:38;;;;;;;;;;;;;;;19.77;64.17;100224.88;5118899;28;1023;-38
2021/06/16 12:02:06;;;;;;;;;;;;;;;19.70;64.83;100232.78;5118896;28;1109;-57
2021/06/16 12:04:44;;;;;;;;;;;;;;;20.02;64.53;100236.53;5119427;28;1981;-37
2021/06/16 12:07:09;;;;;;;;;;;;;;;19.70;65.88;100235.53;5119595;28;754;-56
2021/06/16 12:09:48;;;;;;;;;;;;;;;19.77;65.76;100235.94;5125336;27;1165;-38
2021/06/16 12:12:13;;;;;;;;;;;;;;;19.87;65.21;100242.38;5139790;27;771;-36
2021/06/16 12:14:39;;;;;;;;;;;;;;;19.86;65.21;100244.31;5135499;27;1080;-56
2021/06/16 12:17:05;;;;;;;;;;;;;;;19.94;64.86;100248.31;5119008;28;815;-37
2021/06/16 12:19:34;;;;;;;;;;;;;;;20.22;63.95;100249.06;5119138;28;803;-51
2021/06/16 12:22:00;;;;;;;;;;;;;;;20.65;60.98;100253.28;5118570;28;831;-63
2021/06/16 12:24:27;;;;;;;;;;;;;;;21.08;60.23;100249.19;5118790;28;1968;-40
2021/06/16 12:27:15;;;;;;;;;;;;;;;20.87;60.92;100246.16;5119052;28;771;-54
2021/06/16 12:29:45;;;;;;;;;;;;;;;20.47;62.38;100252.34;5115951;27;1844;-56
2021/06/16 12:32:11;;;;;;;;;;;;;;;20.61;62.03;100253.09;5137819;27;789;-41
2021/06/16 12:37:08;;;;;;;;;;;;;;;20.69;61.74;100270.88;5139017;27;771;-40
2021/06/16 12:39:34;;;;;;;;;;;;;;;20.73;61.33;100254.50;5139565;27;739;-43
2021/06/16 12:42:05;;;;;;;;;;;;;;;20.59;62.01;100260.88;5139047;27;775;-40
2021/06/16 12:44:33;;;;;;;;;;;;;;;20.73;61.25;100266.38;5135271;27;1901;-48
2021/06/16 12:47:00;;;;;;;;;;;;;;;20.61;61.63;100268.88;5117859;28;783;-61
2021/06/16 12:49:35;;;;;;;;;;;;;;;20.67;61.36;100268.44;5118887;28;763;-40
2021/06/16 12:52:05;;;;;;;;;;;;;;;20.46;60.12;100261.75;5117927;28;756;-40
2021/06/16 12:54:31;;;;;;;;;;;;;;;20.29;62.62;100267.97;5118117;27;1227;-40
2021/06/16 12:57:03;;;;;;;;;;;;;;;20.54;61.79;100269.31;5118496;28;799;-61
2021/06/16 12:59:36;;;;;;;;;;;;;;;21.08;59.92;100272.13;5117711;28;950;-63
2021/06/16 13:02:01;;;;;;;;;;;;;;;20.72;60.91;100275.81;5117946;28;1319;-39